createdAt,value
2022-12-28T00:01:20.057Z,96354.88
2022-12-28T00:03:50.080Z,96352.91
2022-12-28T00:06:20.208Z,96356.37
2022-12-28T00:08:49.090Z,96351.06
2022-12-28T00:11:26.617Z,96354.66
2022-12-28T00:13:51.357Z,96357.08
2022-12-28T00:16:28.874Z,96355.27
2022-12-28T00:18:59.283Z,96352.62
2022-12-28T00:21:28.840Z,96357.31
2022-12-28T00:23:59.853Z,96357.31
2022-12-28T00:26:30.398Z,96360.32
2022-12-28T00:29:04.626Z,96365.95
2022-12-28T00:31:30.479Z,96370.70
2022-12-28T00:33:59.176Z,96370.94
2022-12-28T00:37:09.528Z,96375.27
2022-12-28T00:38:58.470Z,96375.53
2022-12-28T00:41:27.320Z,96381.19
2022-12-28T00:43:55.951Z,96384.62
2022-12-28T00:46:24.734Z,96387.44
2022-12-28T00:48:53.475Z,96388.89
2022-12-28T00:51:22.297Z,96394.88
2022-12-28T00:53:50.952Z,96396.27
2022-12-28T00:56:24.007Z,96399.22
2022-12-28T00:58:57.742Z,96397.27
2022-12-28T01:01:28.411Z,96394.19
2022-12-28T01:03:59.020Z,96397.23
2022-12-28T01:06:29.301Z,96397.84
2022-12-28T01:08:58.100Z,96396.61
2022-12-28T01:11:29.405Z,96396.94
2022-12-28T01:14:00.969Z,96392.56
2022-12-28T01:16:35.822Z,96384.61
2022-12-28T01:19:07.258Z,96377.05
2022-12-28T01:21:37.464Z,96384.30
2022-12-28T01:24:10.943Z,96383.05
2022-12-28T01:26:41.027Z,96387.83
2022-12-28T01:29:09.644Z,96383.84
2022-12-28T01:31:38.369Z,96389.14
2022-12-28T01:34:07.037Z,96390.88
2022-12-28T01:36:36.242Z,96384.02
2022-12-28T01:39:07.051Z,96386.36
2022-12-28T01:41:39.547Z,96384.00
2022-12-28T01:44:11.167Z,96379.17
2022-12-28T01:46:42.968Z,96377.84
2022-12-28T01:49:14.632Z,96376.70
2022-12-28T01:52:05.695Z,96374.28
2022-12-28T01:54:43.261Z,96372.31
2022-12-28T01:57:15.332Z,96375.89
2022-12-28T01:59:47.077Z,96376.30
2022-12-28T02:02:17.165Z,96370.22
2022-12-28T02:04:47.930Z,96367.63
2022-12-28T02:07:19.596Z,96364.46
2022-12-28T02:10:43.046Z,96364.84
2022-12-28T02:12:20.452Z,96354.39
2022-12-28T02:14:49.607Z,96361.02
2022-12-28T02:17:19.744Z,96358.53
2022-12-28T02:19:53.798Z,96358.59
2022-12-28T02:22:41.935Z,96355.57
2022-12-28T02:25:34.245Z,96355.80
2022-12-28T02:28:08.822Z,96349.87
2022-12-28T02:30:40.472Z,96344.58
2022-12-28T02:33:21.240Z,96341.92
2022-12-28T02:35:58.226Z,96335.67
2022-12-28T02:38:41.740Z,96331.70
2022-12-28T02:41:16.130Z,96334.13
2022-12-28T02:43:45.630Z,96342.70
2022-12-28T02:46:41.303Z,96336.45
2022-12-28T02:49:40.062Z,96335.45
2022-12-28T02:52:31.189Z,96342.94
2022-12-28T02:55:35.968Z,96340.43
2022-12-28T02:58:33.388Z,96341.06
2022-12-28T03:01:26.312Z,96337.70
2022-12-28T03:04:14.253Z,96329.46
2022-12-28T03:07:03.425Z,96327.87
2022-12-28T03:09:51.612Z,96328.28
2022-12-28T03:12:26.726Z,96332.25
2022-12-28T03:15:04.392Z,96334.30
2022-12-28T03:17:54.481Z,96337.78
2022-12-28T03:20:44.080Z,96339.83
2022-12-28T03:23:33.269Z,96338.73
2022-12-28T03:26:22.581Z,96335.77
2022-12-28T03:29:10.185Z,96339.97
2022-12-28T03:31:39.262Z,96338.27
2022-12-28T03:34:08.391Z,96344.34
2022-12-28T03:36:56.564Z,96351.11
2022-12-28T03:39:52.873Z,96345.81
2022-12-28T03:42:51.495Z,96347.91
2022-12-28T03:45:45.014Z,96342.76
2022-12-28T03:48:12.019Z,96342.53
2022-12-28T03:50:43.961Z,96335.47
2022-12-28T03:53:12.634Z,96345.28
2022-12-28T03:55:43.480Z,96341.08
2022-12-28T03:58:12.466Z,96342.77
2022-12-28T04:00:41.098Z,96339.56
2022-12-28T04:03:18.673Z,96333.55
2022-12-28T04:05:47.367Z,96330.30
2022-12-28T04:08:15.972Z,96331.06
2022-12-28T04:10:44.789Z,96336.02
2022-12-28T04:13:13.520Z,96332.05
2022-12-28T04:15:42.262Z,96338.28
2022-12-28T04:18:12.382Z,96334.85
2022-12-28T04:20:41.267Z,96331.34
2022-12-28T04:23:12.826Z,96329.33
2022-12-28T04:25:41.435Z,96336.35
2022-12-28T04:28:10.134Z,96337.05
2022-12-28T04:30:38.757Z,96345.85
2022-12-28T04:33:07.417Z,96355.91
2022-12-28T04:35:36.077Z,96373.39
2022-12-28T04:38:04.597Z,96366.61
2022-12-28T04:40:33.168Z,96371.34
2022-12-28T04:43:03.323Z,96371.52
2022-12-28T04:45:31.864Z,96371.61
2022-12-28T04:48:02.742Z,96368.34
2022-12-28T04:50:31.769Z,96371.67
2022-12-28T04:53:03.113Z,96380.52
2022-12-28T04:55:37.572Z,96385.14
2022-12-28T04:58:06.138Z,96387.87
2022-12-28T05:00:34.844Z,96389.89
2022-12-28T05:03:03.885Z,96390.66
2022-12-28T05:05:37.874Z,96386.23
2022-12-28T05:08:07.632Z,96386.64
2022-12-28T05:10:36.599Z,96378.80
2022-12-28T05:13:05.217Z,96376.75
2022-12-28T05:15:33.880Z,96374.09
2022-12-28T05:18:02.555Z,96368.09
2022-12-28T05:20:31.149Z,96372.39
2022-12-28T05:22:59.766Z,96374.54
2022-12-28T05:25:28.284Z,96380.34
2022-12-28T05:27:56.878Z,96371.86
2022-12-28T05:30:25.626Z,96367.69
2022-12-28T05:32:54.227Z,96374.13
2022-12-28T05:35:22.813Z,96382.37
2022-12-28T05:37:51.445Z,96381.27
2022-12-28T05:40:20.033Z,96387.01
2022-12-28T05:42:51.615Z,96386.86
2022-12-28T05:45:19.207Z,96392.53
2022-12-28T05:47:47.803Z,96396.51
2022-12-28T05:50:16.655Z,96398.88
2022-12-28T05:52:45.326Z,96398.56
2022-12-28T05:55:14.410Z,96405.42
2022-12-28T05:57:43.218Z,96402.81
2022-12-28T06:00:12.562Z,96403.53
2022-12-28T06:02:45.386Z,96400.20
2022-12-28T06:05:14.390Z,96407.52
2022-12-28T06:07:42.949Z,96402.22
2022-12-28T06:10:11.540Z,96395.45
2022-12-28T06:12:40.152Z,96400.25
2022-12-28T06:15:13.860Z,96403.98
2022-12-28T06:17:42.523Z,96414.44
2022-12-28T06:20:11.984Z,96417.24
2022-12-28T06:22:40.664Z,96420.20
2022-12-28T06:25:10.411Z,96418.65
2022-12-28T06:27:38.930Z,96418.20
2022-12-28T06:30:08.663Z,96411.48
2022-12-28T06:32:37.310Z,96414.04
2022-12-28T06:35:06.298Z,96410.72
2022-12-28T06:37:34.868Z,96401.63
2022-12-28T06:40:03.514Z,96410.66
2022-12-28T06:42:32.136Z,96415.47
2022-12-28T06:45:00.853Z,96426.70
2022-12-28T06:47:29.552Z,96428.84
2022-12-28T06:49:58.169Z,96433.67
2022-12-28T06:52:26.879Z,96442.30
2022-12-28T06:54:55.531Z,96430.98
2022-12-28T06:57:24.109Z,96423.64
2022-12-28T06:59:52.714Z,96427.84
2022-12-28T07:02:21.706Z,96441.48
2022-12-28T07:04:59.198Z,96434.78
2022-12-28T07:07:25.072Z,96430.34
2022-12-28T07:09:53.754Z,96430.58
2022-12-28T07:12:22.512Z,96422.03
2022-12-28T07:14:51.240Z,96423.73
2022-12-28T07:17:19.954Z,96437.80
2022-12-28T07:19:50.335Z,96435.06
2022-12-28T07:22:18.854Z,96429.77
2022-12-28T07:24:47.518Z,96428.38
2022-12-28T07:27:16.274Z,96438.05
2022-12-28T07:29:44.922Z,96440.20
2022-12-28T07:32:13.651Z,96441.03
2022-12-28T07:34:42.301Z,96440.52
2022-12-28T07:37:10.956Z,96441.75
2022-12-28T07:42:34.071Z,96437.39
2022-12-28T07:45:03.592Z,96443.27
2022-12-28T07:47:32.229Z,96448.70
2022-12-28T07:50:00.866Z,96450.81
2022-12-28T07:52:31.304Z,96445.48
2022-12-28T07:54:59.951Z,96446.04
2022-12-28T07:57:28.658Z,96442.31
2022-12-28T07:59:57.301Z,96444.73
2022-12-28T08:02:26.107Z,96445.40
2022-12-28T08:04:54.756Z,96448.05
2022-12-28T08:07:23.800Z,96446.77
2022-12-28T08:09:52.523Z,96444.28
2022-12-28T08:12:21.454Z,96448.34
2022-12-28T08:14:53.116Z,96441.67
2022-12-28T08:17:21.830Z,96446.49
2022-12-28T08:19:52.517Z,96448.64
2022-12-28T08:22:24.329Z,96446.69
2022-12-28T08:24:53.262Z,96448.56
2022-12-28T08:27:22.098Z,96454.27
2022-12-28T08:29:51.104Z,96453.59
2022-12-28T08:32:19.715Z,96458.19
2022-12-28T08:35:00.161Z,96451.05
2022-12-28T08:37:55.865Z,96454.16
2022-12-28T08:41:28.573Z,96454.00
2022-12-28T08:43:21.333Z,96458.34
2022-12-28T08:46:19.121Z,96449.88
2022-12-28T08:54:51.126Z,96455.44
2022-12-28T08:57:41.689Z,96458.56
2022-12-28T09:00:08.846Z,96448.55
2022-12-28T09:02:37.891Z,96445.29
2022-12-28T09:34:13.964Z,96409.41
2022-12-28T09:36:20.569Z,96416.78
2022-12-28T09:38:50.566Z,96416.50
2022-12-28T09:41:28.147Z,96413.02
2022-12-28T09:44:02.561Z,96404.33
2022-12-28T09:46:33.731Z,96402.73
2022-12-28T09:49:05.405Z,96401.19
2022-12-28T09:51:37.026Z,96397.14
2022-12-28T09:54:06.121Z,96389.31
2022-12-28T09:56:37.718Z,96385.10
2022-12-28T09:59:10.297Z,96383.27
2022-12-28T10:01:41.282Z,96390.94
2022-12-28T10:04:12.207Z,96383.91
2022-12-28T10:07:04.397Z,96382.23
2022-12-28T10:09:41.048Z,96375.69
2022-12-28T10:12:15.659Z,96372.28
2022-12-28T10:14:56.051Z,96365.86
2022-12-28T10:17:33.386Z,96365.66
2022-12-28T10:20:01.942Z,96363.08
2022-12-28T10:22:33.622Z,96367.36
2022-12-28T10:25:06.822Z,96361.22
2022-12-28T10:27:35.427Z,96363.70
2022-12-28T10:30:05.796Z,96362.38
2022-12-28T10:32:56.733Z,96358.68
2022-12-28T10:35:25.800Z,96359.67
2022-12-28T10:38:00.811Z,96316.45
2022-12-28T10:40:32.422Z,96357.17
2022-12-28T10:43:10.097Z,96352.57
2022-12-28T10:45:43.328Z,96356.03
2022-12-28T10:48:20.966Z,96352.48
2022-12-28T10:51:04.965Z,96351.80
2022-12-28T10:53:57.440Z,96346.09
2022-12-28T10:56:29.034Z,96349.36
2022-12-28T10:59:17.248Z,96350.63
2022-12-28T11:01:46.153Z,96349.05
2022-12-28T11:04:25.999Z,96358.81
2022-12-28T11:06:58.898Z,96356.77
2022-12-28T11:09:36.198Z,96351.09
2022-12-28T11:12:29.071Z,96354.76
2022-12-28T11:14:57.869Z,96353.26
2022-12-28T11:17:29.487Z,96352.20
2022-12-28T11:20:01.041Z,96356.49
2022-12-28T11:22:31.905Z,96359.17
2022-12-28T11:25:02.481Z,96359.00
2022-12-28T11:27:32.821Z,96367.00
2022-12-28T11:30:04.385Z,96371.22
2022-12-28T11:32:36.068Z,96362.44
2022-12-28T11:35:05.330Z,96367.97
2022-12-28T11:37:36.529Z,96370.52
2022-12-28T11:40:10.324Z,96364.59
2022-12-28T11:42:43.869Z,96358.79
2022-12-28T11:45:26.502Z,96370.34
2022-12-28T11:51:02.987Z,96357.41
2022-12-28T12:08:44.309Z,96341.55
2022-12-28T12:10:23.831Z,96339.00
2022-12-28T12:12:53.765Z,96328.84
2022-12-28T12:15:30.058Z,96326.28
2022-12-28T12:18:09.820Z,96326.45
2022-12-28T12:21:01.227Z,96320.80
2022-12-28T12:23:47.847Z,96311.12
2022-12-28T12:26:31.664Z,96310.38
2022-12-28T12:29:39.753Z,96311.69
2022-12-28T12:32:23.258Z,96300.84
2022-12-28T12:34:57.740Z,96298.74
2022-12-28T12:37:56.864Z,96299.09
2022-12-28T12:40:55.712Z,96296.16
2022-12-28T12:43:44.179Z,96299.24
2022-12-28T12:46:15.858Z,96300.14
2022-12-28T12:49:05.253Z,96296.70
2022-12-28T12:51:43.259Z,96294.32
2022-12-28T12:54:42.855Z,96293.19
2022-12-28T12:57:20.098Z,96301.58
2022-12-28T13:00:16.439Z,96295.88
2022-12-28T13:03:04.998Z,96299.62
2022-12-28T13:05:37.573Z,96304.95
2022-12-28T13:08:07.236Z,96288.78
2022-12-28T13:10:43.276Z,96288.80
2022-12-28T13:13:15.851Z,96287.27
2022-12-28T13:15:45.420Z,96282.87
2022-12-28T13:21:10.532Z,96275.55
2022-12-28T13:23:38.406Z,96271.38
2022-12-28T13:26:09.254Z,96269.16
2022-12-28T13:31:34.724Z,96266.73
2022-12-28T13:34:08.999Z,96266.94
2022-12-28T13:36:39.166Z,96267.77
2022-12-28T13:39:12.964Z,96272.75
2022-12-28T13:41:56.319Z,96275.35
2022-12-28T13:44:33.472Z,96269.80
2022-12-28T13:47:19.655Z,96270.42
2022-12-28T13:50:04.881Z,96264.94
2022-12-28T13:52:36.048Z,96270.81
2022-12-28T13:55:16.673Z,96272.80
2022-12-28T13:57:57.362Z,96268.68
2022-12-28T14:00:24.582Z,96265.04
2022-12-28T14:03:28.635Z,96267.41
2022-12-28T14:06:09.496Z,96264.77
2022-12-28T14:08:40.321Z,96263.52
2022-12-28T14:12:14.494Z,96259.48
2022-12-28T14:13:58.656Z,96263.91
2022-12-28T14:16:27.439Z,96257.03
2022-12-28T14:18:58.156Z,96253.89
2022-12-28T14:21:35.546Z,96252.81
2022-12-28T14:24:09.640Z,96260.80
2022-12-28T14:26:42.132Z,96265.42
2022-12-28T14:29:15.496Z,96261.27
2022-12-28T14:31:49.475Z,96251.50
2022-12-28T14:37:00.704Z,96266.66
2022-12-28T14:39:38.731Z,96268.44
2022-12-28T14:42:09.778Z,96275.11
2022-12-28T14:44:40.942Z,96278.20
2022-12-28T14:47:35.153Z,96280.31
2022-12-28T14:52:48.956Z,96286.84
2022-12-28T14:58:30.922Z,96286.95
2022-12-28T15:01:02.417Z,96288.17
2022-12-28T15:03:37.184Z,96281.69
2022-12-28T15:06:05.896Z,96286.67
2022-12-28T15:08:36.121Z,96282.81
2022-12-28T15:13:35.286Z,96273.23
2022-12-28T15:16:05.241Z,96273.52
2022-12-28T15:18:34.210Z,96274.25
2022-12-28T15:21:07.019Z,96281.16
2022-12-28T15:23:35.753Z,96279.55
2022-12-28T15:26:09.786Z,96280.16
2022-12-28T15:28:42.316Z,96274.22
2022-12-28T15:31:13.750Z,96266.34
2022-12-28T15:33:44.730Z,96262.96
2022-12-28T15:36:19.069Z,96263.22
2022-12-28T15:38:50.370Z,96268.30
2022-12-28T15:41:37.918Z,96274.73
2022-12-28T15:44:06.909Z,96270.07
2022-12-28T15:46:35.637Z,96273.83
2022-12-28T15:49:05.339Z,96280.44
2022-12-28T15:51:35.900Z,96277.06
2022-12-28T15:54:04.800Z,96276.62
2022-12-28T15:56:36.445Z,96276.97
2022-12-28T15:59:07.756Z,96280.44
2022-12-28T16:13:44.087Z,96287.11
2022-12-28T16:16:21.314Z,96282.31
2022-12-28T16:18:56.695Z,96276.94
2022-12-28T16:21:38.214Z,96279.30
2022-12-28T16:24:07.382Z,96271.05
2022-12-28T16:26:36.392Z,96267.64
2022-12-28T16:29:05.305Z,96269.75
2022-12-28T16:31:41.669Z,96268.91
2022-12-28T16:34:13.908Z,96276.76
2022-12-28T16:36:45.703Z,96277.59
2022-12-28T16:39:16.390Z,96274.57
2022-12-28T16:41:45.398Z,96277.12
2022-12-28T16:44:21.776Z,96285.39
2022-12-28T16:46:50.865Z,96288.36
2022-12-28T16:49:19.896Z,96293.46
2022-12-28T17:11:16.283Z,96308.05
2022-12-28T17:13:44.917Z,96297.94
2022-12-28T17:16:15.141Z,96307.13
2022-12-28T17:18:45.540Z,96298.02
2022-12-28T17:21:38.161Z,96300.02
2022-12-28T17:45:52.176Z,96281.74
2022-12-28T17:51:33.521Z,96287.77
2022-12-28T17:57:01.278Z,96294.66
2022-12-28T18:46:19.889Z,96311.73
2022-12-28T18:49:09.556Z,96309.94
2022-12-28T18:52:06.909Z,96310.23
2022-12-28T18:54:42.482Z,96313.97
2022-12-28T20:25:35.716Z,96333.55
2022-12-28T20:28:01.930Z,96326.77
2022-12-28T20:30:36.299Z,96327.23
2022-12-28T20:33:08.449Z,96328.30
2022-12-28T20:35:58.008Z,96332.45
2022-12-28T20:38:27.039Z,96334.40
2022-12-28T20:41:07.279Z,96337.80
2022-12-28T20:43:38.442Z,96328.79
2022-12-28T20:46:17.028Z,96335.92
2022-12-28T20:54:57.407Z,96328.46
2022-12-28T20:57:26.058Z,96333.20
2022-12-28T21:00:00.380Z,96328.74
2022-12-28T21:02:29.067Z,96325.39
2022-12-28T21:05:01.264Z,96323.22
2022-12-28T21:07:31.848Z,96283.88
2022-12-28T21:10:00.733Z,96315.44
2022-12-28T21:12:31.217Z,96305.95
2022-12-28T21:14:59.957Z,96303.27
2022-12-28T21:17:30.379Z,96293.35
2022-12-28T21:19:59.044Z,96297.56
2022-12-28T21:22:27.853Z,96301.77
2022-12-28T21:24:56.615Z,96304.04
2022-12-28T21:27:25.354Z,96304.45
2022-12-28T21:29:54.071Z,96310.85
2022-12-28T21:32:22.958Z,96312.00
2022-12-28T21:34:51.576Z,96317.19
2022-12-28T21:37:35.383Z,96315.77
2022-12-28T21:40:06.591Z,96324.36
2022-12-28T21:42:38.473Z,96319.62
2022-12-28T21:45:14.118Z,96320.16
2022-12-28T21:47:48.990Z,96317.19
2022-12-28T21:50:19.189Z,96321.82
2022-12-28T21:52:47.941Z,96319.45
2022-12-28T21:55:34.768Z,96329.57
2022-12-28T21:58:03.384Z,96329.47
2022-12-28T22:00:51.543Z,96332.95
2022-12-28T22:03:41.628Z,96324.73
2022-12-28T22:06:10.486Z,96324.92
2022-12-28T22:09:00.311Z,96332.11
2022-12-28T22:11:51.718Z,96323.23
2022-12-28T22:14:22.065Z,96323.83
2022-12-28T22:16:51.241Z,96328.01
2022-12-28T22:19:31.869Z,96321.67
2022-12-28T22:21:56.935Z,96326.50
2022-12-28T22:24:29.044Z,96325.03
2022-12-28T22:27:00.875Z,96326.13
2022-12-28T22:29:37.399Z,96328.74
2022-12-28T22:32:25.883Z,96320.73
2022-12-28T22:35:26.112Z,96326.20
2022-12-28T22:38:00.963Z,96320.69
2022-12-28T22:43:36.836Z,96323.33
2022-12-28T22:46:10.925Z,96318.27
2022-12-28T22:48:39.880Z,96320.69
2022-12-28T22:51:11.344Z,96317.30
2022-12-28T22:53:40.801Z,96316.41
2022-12-28T22:56:14.097Z,96306.25
2022-12-28T22:58:42.807Z,96311.13
2022-12-28T23:01:17.360Z,96307.86
2022-12-28T23:03:49.507Z,96310.97
2022-12-28T23:06:20.688Z,96305.06
2022-12-28T23:08:49.310Z,96300.28
2022-12-28T23:11:40.833Z,96299.42
2022-12-28T23:14:32.652Z,96298.76
2022-12-28T23:17:02.736Z,96307.59
2022-12-28T23:19:49.847Z,96310.23
2022-12-28T23:22:45.282Z,96308.05
2022-12-28T23:25:34.523Z,96295.80
2022-12-28T23:28:05.668Z,96298.48
2022-12-28T23:30:34.889Z,96295.78
2022-12-28T23:33:04.277Z,96289.13
2022-12-28T23:35:33.448Z,96287.95
2022-12-28T23:38:02.282Z,96287.00
2022-12-28T23:40:31.258Z,96286.20
2022-12-28T23:43:01.151Z,96281.14
2022-12-28T23:45:31.425Z,96280.56
2022-12-28T23:47:59.999Z,96279.19
2022-12-28T23:50:32.078Z,96276.52
2022-12-28T23:53:10.290Z,96275.30
2022-12-28T23:55:39.691Z,96273.15
2022-12-28T23:58:10.046Z,96271.10
